createdAt,value
2018-05-17T00:01:01.003Z,11.35
2018-05-17T00:02:22.793Z,11.39
2018-05-17T00:03:44.326Z,11.35
2018-05-17T00:05:06.128Z,11.24
2018-05-17T00:06:28.426Z,11.33
2018-05-17T00:07:50.473Z,11.37
2018-05-17T00:09:12.531Z,11.36
2018-05-17T00:10:33.805Z,11.39
2018-05-17T00:11:55.614Z,11.37
2018-05-17T00:13:17.406Z,11.36
2018-05-17T00:14:39.210Z,11.37
2018-05-17T00:16:01.016Z,11.36
2018-05-17T00:17:22.827Z,11.25
2018-05-17T00:18:44.633Z,11.33
2018-05-17T00:20:06.176Z,11.29
2018-05-17T00:21:28.249Z,11.28
2018-05-17T00:22:50.064Z,11.37
2018-05-17T00:24:12.144Z,11.37
2018-05-17T00:25:34.222Z,11.43
2018-05-17T00:26:56.289Z,11.39
2018-05-17T00:28:17.825Z,11.42
2018-05-17T00:29:39.634Z,11.44
2018-05-17T00:31:02.332Z,11.54
2018-05-17T00:32:24.132Z,11.52
2018-05-17T00:33:45.926Z,11.57
2018-05-17T00:35:07.721Z,11.61
2018-05-17T00:36:29.528Z,11.65
2018-05-17T00:37:50.813Z,11.62
2018-05-17T00:39:12.347Z,11.7
2018-05-17T00:40:34.146Z,11.73
2018-05-17T00:41:55.937Z,11.79
2018-05-17T00:43:18.000Z,11.73
2018-05-17T00:44:40.060Z,11.78
2018-05-17T00:46:01.869Z,11.79
2018-05-17T00:47:23.925Z,11.85
2018-05-17T00:48:45.716Z,11.85
2018-05-17T00:50:07.808Z,11.88
2018-05-17T00:51:29.619Z,11.91
2018-05-17T00:52:51.407Z,11.8
2018-05-17T00:54:12.950Z,11.86
2018-05-17T00:55:34.744Z,11.9
2018-05-17T00:56:56.802Z,11.91
2018-05-17T00:58:18.848Z,11.85
2018-05-17T00:59:40.649Z,11.78
2018-05-17T01:01:02.448Z,11.9
2018-05-17T01:02:24.258Z,11.94
2018-05-17T01:03:46.311Z,11.8
2018-05-17T01:05:07.846Z,11.79
2018-05-17T01:06:29.643Z,11.76
2018-05-17T01:07:51.465Z,11.73
2018-05-17T01:09:13.001Z,11.72
2018-05-17T01:10:35.060Z,11.62
2018-05-17T01:11:57.115Z,11.62
2018-05-17T01:13:18.903Z,11.61
2018-05-17T01:14:40.710Z,11.58
2018-05-17T01:16:02.511Z,11.6
2018-05-17T01:17:24.041Z,11.57
2018-05-17T01:18:45.583Z,11.49
2018-05-17T01:20:07.652Z,11.54
2018-05-17T01:21:29.447Z,11.51
2018-05-17T01:22:51.503Z,11.6
2018-05-17T01:24:13.379Z,11.58
2018-05-17T01:25:35.442Z,11.57
2018-05-17T01:26:57.239Z,11.6
2018-05-17T01:28:19.300Z,11.55
2018-05-17T01:29:40.821Z,11.58
2018-05-17T01:31:02.880Z,11.61
2018-05-17T01:32:24.973Z,11.62
2018-05-17T01:33:46.774Z,11.62
2018-05-17T01:35:08.734Z,11.67
2018-05-17T01:36:30.878Z,11.67
2018-05-17T01:37:52.696Z,11.61
2018-05-17T01:39:14.758Z,11.62
2018-05-17T01:40:36.298Z,11.61
2018-05-17T01:41:58.357Z,11.67
2018-05-17T01:43:20.384Z,11.64
2018-05-17T01:44:42.200Z,11.7
2018-05-17T01:46:03.730Z,11.65
2018-05-17T01:47:25.773Z,11.61
2018-05-17T01:48:47.576Z,11.64
2018-05-17T01:50:09.358Z,11.64
2018-05-17T01:51:31.146Z,11.6
2018-05-17T01:52:52.953Z,11.64
2018-05-17T01:54:14.508Z,11.62
2018-05-17T01:55:36.564Z,11.6
2018-05-17T01:56:58.093Z,11.6
2018-05-17T01:58:19.891Z,11.58
2018-05-17T01:59:41.958Z,11.6
2018-05-17T02:01:03.765Z,11.58
2018-05-17T02:02:25.826Z,11.67
2018-05-17T02:03:47.890Z,11.61
2018-05-17T02:05:09.153Z,11.54
2018-05-17T02:06:31.221Z,11.61
2018-05-17T02:07:53.015Z,11.54
2018-05-17T02:09:14.822Z,11.6
2018-05-17T02:10:36.359Z,11.62
2018-05-17T02:11:58.429Z,11.64
2018-05-17T02:13:20.495Z,11.57
2018-05-17T02:14:42.540Z,11.55
2018-05-17T02:16:04.087Z,11.57
2018-05-17T02:17:26.128Z,11.57
2018-05-17T02:18:47.657Z,11.54
2018-05-17T02:20:09.720Z,11.58
2018-05-17T02:21:31.516Z,11.55
2018-05-17T02:22:53.574Z,11.55
2018-05-17T02:24:15.642Z,11.35
2018-05-17T02:25:37.690Z,11.36
2018-05-17T02:26:58.963Z,11.32
2018-05-17T02:28:20.758Z,11.39
2018-05-17T02:29:42.555Z,11.42
2018-05-17T02:31:04.087Z,11.39
2018-05-17T02:32:25.885Z,11.37
2018-05-17T02:33:47.686Z,11.29
2018-05-17T02:35:09.751Z,11.39
2018-05-17T02:36:31.813Z,11.35
2018-05-17T02:37:53.609Z,11.37
2018-05-17T02:39:15.424Z,11.4
2018-05-17T02:40:37.249Z,11.27
2018-05-17T02:41:59.049Z,11.4
2018-05-17T02:43:20.839Z,11.54
2018-05-17T02:44:42.377Z,11.42
2018-05-17T02:46:04.183Z,11.47
2018-05-17T02:47:25.989Z,11.33
2018-05-17T02:48:48.081Z,11.51
2018-05-17T02:50:10.154Z,11.36
2018-05-17T02:51:31.952Z,11.4
2018-05-17T02:52:54.113Z,11.44
2018-05-17T02:54:16.189Z,11.44
2018-05-17T02:55:37.981Z,11.51
2018-05-17T02:57:00.042Z,11.4
2018-05-17T02:58:21.856Z,11.29
2018-05-17T02:59:43.660Z,11.33
2018-05-17T03:01:05.723Z,11.36
2018-05-17T03:02:27.520Z,11.35
2018-05-17T03:03:49.591Z,11.36
2018-05-17T03:05:11.654Z,11.51
2018-05-17T03:06:33.922Z,11.44
2018-05-17T03:07:55.460Z,11.37
2018-05-17T03:09:17.258Z,11.36
2018-05-17T03:10:39.065Z,11.39
2018-05-17T03:12:00.858Z,11.47
2018-05-17T03:13:22.651Z,11.46
2018-05-17T03:14:44.204Z,11.36
2018-05-17T03:16:05.997Z,11.36
2018-05-17T03:17:27.799Z,11.43
2018-05-17T03:18:49.585Z,11.43
2018-05-17T03:20:11.595Z,11.49
2018-05-17T03:21:32.876Z,11.46
2018-05-17T03:22:54.401Z,11.51
2018-05-17T03:24:16.199Z,11.47
2018-05-17T03:25:37.993Z,11.54
2018-05-17T03:27:00.059Z,11.39
2018-05-17T03:28:21.861Z,11.43
2018-05-17T03:29:43.929Z,11.4
2018-05-17T03:31:05.206Z,11.44
2018-05-17T03:32:26.747Z,11.43
2018-05-17T03:33:48.816Z,11.44
2018-05-17T03:35:10.871Z,11.47
2018-05-17T03:36:32.929Z,11.51
2018-05-17T03:37:54.729Z,11.46
2018-05-17T03:39:16.784Z,11.54
2018-05-17T03:40:38.847Z,11.49
2018-05-17T03:42:00.676Z,11.4
2018-05-17T03:43:22.738Z,11.52
2018-05-17T03:44:44.549Z,11.52
2018-05-17T03:46:06.347Z,11.49
2018-05-17T03:47:28.394Z,11.49
2018-05-17T03:48:50.200Z,11.46
2018-05-17T03:50:12.007Z,11.49
2018-05-17T03:51:34.069Z,11.54
2018-05-17T03:52:56.333Z,11.54
2018-05-17T03:54:17.879Z,11.55
2018-05-17T03:55:39.680Z,11.54
2018-05-17T03:57:01.203Z,11.55
2018-05-17T03:58:22.993Z,11.54
2018-05-17T03:59:44.787Z,11.49
2018-05-17T04:01:06.845Z,11.52
2018-05-17T04:02:28.726Z,11.55
2018-05-17T04:03:50.255Z,11.44
2018-05-17T04:05:12.481Z,11.54
2018-05-17T04:06:34.284Z,11.57
2018-05-17T04:07:56.340Z,11.55
2018-05-17T04:09:18.385Z,11.57
2018-05-17T04:10:40.661Z,11.54
2018-05-17T04:12:02.456Z,11.51
2018-05-17T04:13:24.250Z,11.62
2018-05-17T04:14:46.055Z,11.65
2018-05-17T04:16:07.850Z,11.61
2018-05-17T04:17:29.403Z,11.57
2018-05-17T04:18:50.936Z,11.67
2018-05-17T04:20:12.475Z,11.64
2018-05-17T04:21:34.294Z,11.73
2018-05-17T04:22:56.346Z,11.67
2018-05-17T04:24:18.397Z,11.58
2018-05-17T04:25:39.685Z,11.57
2018-05-17T04:27:01.472Z,11.61
2018-05-17T04:28:23.266Z,11.65
2018-05-17T04:29:45.341Z,11.7
2018-05-17T04:31:07.425Z,11.65
2018-05-17T04:32:28.962Z,11.69
2018-05-17T04:33:51.024Z,11.67
2018-05-17T04:35:12.827Z,11.72
2018-05-17T04:36:34.615Z,11.62
2018-05-17T04:37:56.774Z,11.8
2018-05-17T04:39:18.830Z,11.8
2018-05-17T04:40:40.823Z,11.76
2018-05-17T04:42:02.895Z,11.79
2018-05-17T04:43:24.701Z,11.79
2018-05-17T04:44:46.749Z,11.76
2018-05-17T04:46:08.828Z,11.79
2018-05-17T04:47:30.629Z,11.82
2018-05-17T04:48:52.691Z,11.78
2018-05-17T04:50:14.762Z,11.91
2018-05-17T04:51:36.298Z,11.86
2018-05-17T04:52:58.109Z,11.79
2018-05-17T04:54:19.369Z,11.9
2018-05-17T04:55:41.447Z,12.02
2018-05-17T04:57:03.525Z,12.01
2018-05-17T04:58:25.591Z,11.94
2018-05-17T04:59:47.385Z,11.96
2018-05-17T05:01:09.448Z,12.02
2018-05-17T05:02:31.008Z,11.91
2018-05-17T05:03:52.917Z,12.01
2018-05-17T05:05:14.971Z,11.99
2018-05-17T05:06:36.780Z,11.99
2018-05-17T05:07:58.592Z,11.99
2018-05-17T05:09:20.747Z,12.07
2018-05-17T05:10:42.326Z,12.19
2018-05-17T05:12:03.866Z,12.07
2018-05-17T05:13:25.421Z,12.07
2018-05-17T05:14:46.974Z,12.14
2018-05-17T05:16:08.768Z,12.1
2018-05-17T05:17:30.606Z,12.2
2018-05-17T05:18:52.406Z,12.14
2018-05-17T05:20:14.477Z,12.16
2018-05-17T05:21:36.266Z,12.23
2018-05-17T05:22:58.090Z,12.32
2018-05-17T05:24:20.164Z,12.34
2018-05-17T05:25:41.707Z,12.34
2018-05-17T05:27:03.780Z,12.37
2018-05-17T05:28:25.146Z,12.42
2018-05-17T05:29:46.955Z,12.42
2018-05-17T05:31:08.748Z,12.35
2018-05-17T05:32:30.286Z,12.37
2018-05-17T05:33:52.346Z,12.56
2018-05-17T05:35:14.163Z,12.54
2018-05-17T05:36:35.961Z,12.49
2018-05-17T05:37:57.782Z,12.41
2018-05-17T05:39:19.620Z,12.52
2018-05-17T05:40:41.420Z,12.46
2018-05-17T05:42:03.700Z,12.37
2018-05-17T05:43:25.975Z,12.42
2018-05-17T05:44:47.798Z,12.46
2018-05-17T05:46:09.852Z,12.39
2018-05-17T05:47:31.659Z,12.35
2018-05-17T05:48:53.724Z,12.45
2018-05-17T05:50:15.265Z,12.5
2018-05-17T05:51:37.334Z,12.38
2018-05-17T05:52:59.133Z,12.34
2018-05-17T05:54:20.934Z,12.32
2018-05-17T05:55:42.737Z,12.39
2018-05-17T05:57:04.798Z,12.41
2018-05-17T05:58:26.861Z,12.38
2018-05-17T05:59:48.412Z,12.38
2018-05-17T06:01:10.491Z,12.34
2018-05-17T06:02:32.247Z,12.42
2018-05-17T06:03:54.334Z,12.45
2018-05-17T06:05:16.159Z,12.29
2018-05-17T06:06:38.220Z,12.2
2018-05-17T06:08:00.284Z,12.35
2018-05-17T06:09:22.375Z,12.41
2018-05-17T06:10:44.440Z,12.59
2018-05-17T06:12:06.498Z,12.6
2018-05-17T06:13:28.304Z,12.54
2018-05-17T06:14:50.378Z,12.49
2018-05-17T06:16:12.453Z,12.38
2018-05-17T06:17:34.723Z,12.37
2018-05-17T06:18:56.815Z,12.38
2018-05-17T06:20:18.655Z,12.49
2018-05-17T06:21:40.455Z,12.6
2018-05-17T06:23:02.535Z,12.28
2018-05-17T06:24:24.359Z,12.24
2018-05-17T06:25:46.433Z,12.24
2018-05-17T06:27:08.255Z,12.31
2018-05-17T06:28:30.313Z,12.29
2018-05-17T06:29:52.122Z,12.39
2018-05-17T06:31:13.666Z,12.71
2018-05-17T06:32:35.712Z,12.87
2018-05-17T06:33:57.801Z,12.87
2018-05-17T06:35:19.589Z,12.92
2018-05-17T06:36:41.664Z,12.96
2018-05-17T06:38:03.544Z,13.07
2018-05-17T06:39:25.341Z,12.96
2018-05-17T06:40:47.141Z,13.01
2018-05-17T06:42:09.217Z,12.96
2018-05-17T06:43:30.770Z,13.03
2018-05-17T06:44:52.578Z,13.05
2018-05-17T06:46:14.647Z,13
2018-05-17T06:47:36.705Z,12.87
2018-05-17T06:48:58.249Z,12.75
2018-05-17T06:50:20.332Z,12.82
2018-05-17T06:51:42.155Z,12.87
2018-05-17T06:53:04.410Z,12.96
2018-05-17T06:54:26.495Z,12.96
2018-05-17T06:55:48.583Z,13.04
2018-05-17T06:57:10.390Z,13
2018-05-17T06:58:32.459Z,12.67
2018-05-17T06:59:54.257Z,12.57
2018-05-17T07:01:16.460Z,12.93
2018-05-17T07:02:38.111Z,13.12
2018-05-17T07:04:00.214Z,13.23
2018-05-17T07:05:22.272Z,13.36
2018-05-17T07:06:44.340Z,13.48
2018-05-17T07:08:06.156Z,13.49
2018-05-17T07:09:28.229Z,13.38
2018-05-17T07:10:50.289Z,13.46
2018-05-17T07:12:12.091Z,13.52
2018-05-17T07:13:34.160Z,13.57
2018-05-17T07:14:56.283Z,13.36
2018-05-17T07:16:17.835Z,13.55
2018-05-17T07:17:39.633Z,13.73
2018-05-17T07:19:01.199Z,13.79
2018-05-17T07:20:23.000Z,13.73
2018-05-17T07:21:44.572Z,13.81
2018-05-17T07:23:06.632Z,13.91
2018-05-17T07:24:28.706Z,13.89
2018-05-17T07:25:50.242Z,14.02
2018-05-17T07:27:12.305Z,14
2018-05-17T07:28:33.845Z,14.03
2018-05-17T07:29:55.783Z,13.95
2018-05-17T07:31:17.697Z,13.81
2018-05-17T07:32:39.993Z,13.78
2018-05-17T07:34:02.073Z,14.03
2018-05-17T07:35:24.164Z,14.18
2018-05-17T07:36:46.230Z,14.27
2018-05-17T07:38:08.337Z,14.21
2018-05-17T07:39:29.910Z,14.33
2018-05-17T07:40:51.977Z,14.29
2018-05-17T07:42:14.041Z,14.29
2018-05-17T07:43:35.838Z,14.51
2018-05-17T07:44:57.907Z,14.58
2018-05-17T07:46:19.713Z,14.57
2018-05-17T07:47:41.271Z,14.65
2018-05-17T07:49:03.335Z,14.96
2018-05-17T07:50:24.882Z,15.03
2018-05-17T07:51:46.156Z,15.01
2018-05-17T07:53:07.974Z,15.07
2018-05-17T07:54:30.041Z,14.86
2018-05-17T07:55:51.976Z,14.47
2018-05-17T07:57:13.798Z,14.43
2018-05-17T07:58:35.865Z,14.62
2018-05-17T07:59:57.387Z,14.83
2018-05-17T08:01:19.454Z,14.7
2018-05-17T08:02:41.539Z,14.55
2018-05-17T08:04:03.367Z,14.39
2018-05-17T08:05:25.456Z,14.69
2018-05-17T08:06:47.286Z,14.78
2018-05-17T08:08:09.351Z,14.65
2018-05-17T08:09:31.551Z,14.5
2018-05-17T08:10:53.450Z,14.57
2018-05-17T08:12:15.547Z,14.61
2018-05-17T08:13:37.356Z,14.29
2018-05-17T08:14:58.890Z,14.51
2018-05-17T08:16:20.694Z,14.6
2018-05-17T08:17:42.491Z,14.54
2018-05-17T08:19:04.304Z,14.58
2018-05-17T08:20:25.589Z,14.55
2018-05-17T08:21:47.650Z,14.43
2018-05-17T08:23:09.722Z,14.46
2018-05-17T08:24:31.796Z,14.57
2018-05-17T08:25:53.885Z,14.75
2018-05-17T08:27:15.969Z,14.86
2018-05-17T08:28:38.056Z,14.99
2018-05-17T08:29:59.951Z,15.02
2018-05-17T08:31:21.521Z,14.89
2018-05-17T08:32:43.330Z,14.78
2018-05-17T08:34:05.403Z,14.86
2018-05-17T08:35:27.478Z,14.86
2018-05-17T08:36:49.978Z,14.84
2018-05-17T08:38:11.815Z,15.06
2018-05-17T08:39:33.877Z,15.03
2018-05-17T08:40:55.700Z,14.96
2018-05-17T08:42:17.774Z,15.06
2018-05-17T08:43:39.844Z,14.98
2018-05-17T08:45:01.651Z,15.28
2018-05-17T08:46:23.729Z,15.31
2018-05-17T08:47:45.817Z,15.41
2018-05-17T08:49:07.623Z,15.38
2018-05-17T08:50:29.425Z,15.54
2018-05-17T08:51:51.500Z,15.69
2018-05-17T08:53:13.569Z,15.74
2018-05-17T08:54:34.934Z,15.93
2018-05-17T08:55:56.741Z,16.15
2018-05-17T08:57:18.289Z,16.08
2018-05-17T08:58:40.107Z,15.9
2018-05-17T09:00:02.322Z,15.75
2018-05-17T09:01:24.392Z,15.75
2018-05-17T09:02:46.207Z,16.08
2018-05-17T09:04:08.290Z,16.01
2018-05-17T09:05:29.846Z,15.75
2018-05-17T09:06:51.930Z,15.67
2018-05-17T09:08:13.477Z,15.51
2018-05-17T09:09:35.577Z,15.6
2018-05-17T09:10:57.393Z,15.68
2018-05-17T09:12:19.471Z,15.51
2018-05-17T09:13:41.816Z,15.27
2018-05-17T09:15:03.730Z,15.35
2018-05-17T09:16:25.785Z,15.29
2018-05-17T09:17:47.568Z,15.28
2018-05-17T09:19:09.377Z,15.47
2018-05-17T09:20:31.576Z,15.51
2018-05-17T09:21:53.747Z,15.53
2018-05-17T09:23:15.284Z,15.62
2018-05-17T09:24:37.347Z,16.01
2018-05-17T09:25:59.413Z,16.28
2018-05-17T09:27:21.221Z,16.35
2018-05-17T09:28:42.759Z,16.71
2018-05-17T09:30:04.849Z,16.91
2018-05-17T09:31:26.926Z,16.96
2018-05-17T09:32:48.735Z,16.98
2018-05-17T09:34:10.821Z,16.93
2018-05-17T09:35:32.895Z,16.86
2018-05-17T09:36:55.138Z,16.88
2018-05-17T09:38:17.199Z,16.97
2018-05-17T09:39:39.018Z,16.57
2018-05-17T09:41:00.635Z,16.2
2018-05-17T09:42:22.708Z,16.52
2018-05-17T09:43:44.242Z,16.85
2018-05-17T09:45:06.336Z,17.04
2018-05-17T09:46:28.428Z,17.03
2018-05-17T09:47:50.569Z,17.14
2018-05-17T09:49:12.406Z,17
2018-05-17T09:50:34.208Z,16.64
2018-05-17T09:51:56.277Z,16.88
2018-05-17T09:53:18.115Z,16.98
2018-05-17T09:54:39.672Z,16.91
2018-05-17T09:56:01.847Z,16.91
2018-05-17T09:57:23.931Z,16.94
2018-05-17T09:58:44.965Z,16.93
2018-05-17T10:00:07.061Z,16.85
2018-05-17T10:01:29.131Z,16.89
2018-05-17T10:02:50.947Z,16.81
2018-05-17T10:04:13.011Z,16.91
2018-05-17T10:05:35.098Z,17.03
2018-05-17T10:06:56.892Z,17.03
2018-05-17T10:08:18.957Z,17.26
2018-05-17T10:09:40.767Z,17
2018-05-17T10:11:02.589Z,17.01
2018-05-17T10:12:24.407Z,16.71
2018-05-17T10:13:46.491Z,16.73
2018-05-17T10:15:08.125Z,16.89
2018-05-17T10:16:29.413Z,16.86
2018-05-17T10:17:51.238Z,16.98
2018-05-17T10:19:13.059Z,17
2018-05-17T10:20:34.876Z,17.31
2018-05-17T10:21:57.058Z,17.21
2018-05-17T10:23:19.311Z,17.51
2018-05-17T10:24:41.378Z,17.49
2018-05-17T10:26:03.449Z,17.43
2018-05-17T10:27:24.995Z,16.91
2018-05-17T10:28:47.077Z,17.06
2018-05-17T10:30:08.644Z,17.15
2018-05-17T10:31:30.459Z,17.34
2018-05-17T10:32:52.535Z,17.48
2018-05-17T10:34:14.615Z,17.63
2018-05-17T10:35:36.471Z,16.82
2018-05-17T10:36:58.290Z,16.93
2018-05-17T10:38:20.360Z,17.18
2018-05-17T10:39:42.185Z,17.41
2018-05-17T10:41:03.712Z,17.56
2018-05-17T10:42:25.817Z,17.54
2018-05-17T10:43:47.645Z,17.7
2018-05-17T10:45:09.461Z,17.49
2018-05-17T10:46:31.007Z,17.46
2018-05-17T10:47:53.084Z,17.43
2018-05-17T10:49:15.088Z,17.74
2018-05-17T10:50:36.396Z,17.74
2018-05-17T10:51:58.203Z,17.74
2018-05-17T10:53:20.260Z,17.78
2018-05-17T10:54:42.531Z,17.59
2018-05-17T10:56:04.613Z,17.44
2018-05-17T10:57:26.409Z,17.49
2018-05-17T10:58:48.474Z,17.48
2018-05-17T11:00:10.295Z,17.3
2018-05-17T11:01:32.377Z,17.12
2018-05-17T11:02:54.219Z,16.93
2018-05-17T11:04:16.013Z,16.97
2018-05-17T11:05:37.841Z,17.15
2018-05-17T11:06:59.915Z,17.38
2018-05-17T11:08:21.716Z,17.33
2018-05-17T11:09:43.520Z,17.25
2018-05-17T11:11:05.598Z,17.03
2018-05-17T11:12:27.473Z,17.18
2018-05-17T11:13:49.298Z,17.59
2018-05-17T11:15:11.163Z,17.82
2018-05-17T11:16:33.491Z,17.93
2018-05-17T11:17:55.570Z,18
2018-05-17T11:19:17.408Z,17.96
2018-05-17T11:20:39.488Z,18.27
2018-05-17T11:22:01.322Z,18.27
2018-05-17T11:23:23.396Z,18.15
2018-05-17T11:24:45.242Z,18.08
2018-05-17T11:26:07.159Z,17.95
2018-05-17T11:27:29.223Z,18.1
2018-05-17T11:28:51.299Z,18.14
2018-05-17T11:30:13.386Z,18.18
2018-05-17T11:31:34.931Z,18.25
2018-05-17T11:32:56.751Z,18.05
2018-05-17T11:34:18.818Z,17.78
2018-05-17T11:35:40.385Z,17.72
2018-05-17T11:37:02.461Z,17.59
2018-05-17T11:38:24.643Z,17.46
2018-05-17T11:39:46.863Z,17.34
2018-05-17T11:41:08.669Z,17.22
2018-05-17T11:42:30.496Z,17.08
2018-05-17T11:43:52.576Z,16.79
2018-05-17T11:45:14.137Z,16.88
2018-05-17T11:46:36.241Z,16.97
2018-05-17T11:47:57.779Z,17.06
2018-05-17T11:49:19.862Z,17
2018-05-17T11:50:41.717Z,16.91
2018-05-17T11:52:03.885Z,16.97
2018-05-17T11:53:25.686Z,16.85
2018-05-17T11:54:47.770Z,16.68
2018-05-17T11:56:09.587Z,16.89
2018-05-17T11:57:31.665Z,16.88
2018-05-17T11:58:53.465Z,17.01
2018-05-17T12:00:15.560Z,17.07
2018-05-17T12:01:37.874Z,17
2018-05-17T12:02:59.784Z,17.14
2018-05-17T12:04:21.864Z,17.23
2018-05-17T12:05:43.963Z,17.34
2018-05-17T12:07:05.784Z,17.33
2018-05-17T12:08:27.731Z,17.36
2018-05-17T12:09:49.285Z,17.11
2018-05-17T12:11:10.842Z,17.11
2018-05-17T12:12:32.662Z,17.21
2018-05-17T12:13:54.749Z,17.11
2018-05-17T12:15:16.851Z,17.08
2018-05-17T12:16:38.670Z,17.11
2018-05-17T12:18:00.765Z,17.15
2018-05-17T12:19:22.606Z,17.36
2018-05-17T12:20:44.462Z,17.55
2018-05-17T12:22:06.020Z,17.64
2018-05-17T12:23:28.093Z,17.43
2018-05-17T12:24:50.174Z,17.58
2018-05-17T12:26:12.261Z,17.28
2018-05-17T12:27:34.081Z,17.37
2018-05-17T12:28:56.153Z,17.34
2018-05-17T12:30:17.982Z,17.44
2018-05-17T12:31:40.249Z,17.55
2018-05-17T12:33:02.738Z,17.66
2018-05-17T12:34:24.836Z,17.64
2018-05-17T12:35:46.949Z,17.52
2018-05-17T12:37:09.064Z,17.52
2018-05-17T12:38:31.276Z,17.56
2018-05-17T12:39:53.410Z,17.44
2018-05-17T12:41:15.490Z,17.12
2018-05-17T12:42:37.316Z,16.91
2018-05-17T12:43:59.562Z,17.08
2018-05-17T12:45:21.411Z,17.18
2018-05-17T12:46:43.232Z,17.3
2018-05-17T12:48:05.595Z,17.25
2018-05-17T12:49:27.409Z,17.3
2018-05-17T12:50:49.639Z,17.41
2018-05-17T12:52:11.906Z,17.43
2018-05-17T12:53:33.469Z,17.63
2018-05-17T12:54:55.563Z,17.81
2018-05-17T12:56:17.404Z,17.82
2018-05-17T12:57:38.962Z,17.7
2018-05-17T12:59:01.351Z,17.46
2018-05-17T13:00:23.431Z,17.15
2018-05-17T13:01:45.534Z,17.07
2018-05-17T13:03:07.617Z,17.04
2018-05-17T13:04:29.439Z,17.16
2018-05-17T13:05:51.540Z,17.33
2018-05-17T13:07:13.759Z,17.51
2018-05-17T13:08:35.844Z,17.33
2018-05-17T13:09:57.665Z,17.11
2018-05-17T13:11:19.762Z,17.12
2018-05-17T13:12:41.859Z,17.07
2018-05-17T13:14:03.408Z,16.93
2018-05-17T13:15:24.946Z,16.82
2018-05-17T13:16:46.237Z,16.91
2018-05-17T13:18:08.336Z,16.91
2018-05-17T13:19:30.407Z,17.04
2018-05-17T13:20:52.494Z,17.21
2018-05-17T13:22:14.587Z,17.15
2018-05-17T13:23:36.161Z,17
2018-05-17T13:24:58.552Z,17.03
2018-05-17T13:26:20.640Z,17.18
2018-05-17T13:27:42.463Z,17.37
2018-05-17T13:29:04.039Z,17.36
2018-05-17T13:30:26.304Z,17.44
2018-05-17T13:31:48.109Z,17.31
2018-05-17T13:33:09.930Z,17.31
2018-05-17T13:34:30.968Z,17.31
2018-05-17T13:35:52.781Z,17.33
2018-05-17T13:37:14.991Z,17.21
2018-05-17T13:38:37.271Z,17.23
2018-05-17T13:39:59.384Z,17.3
2018-05-17T13:41:21.473Z,17.33
2018-05-17T13:42:43.384Z,17.31
2018-05-17T13:44:05.187Z,17.46
2018-05-17T13:45:27.024Z,17.51
2018-05-17T13:46:48.858Z,17.44
2018-05-17T13:48:10.979Z,17.31
2018-05-17T13:49:33.174Z,17.25
2018-05-17T13:50:55.344Z,17.22
2018-05-17T13:52:17.462Z,16.97
2018-05-17T13:53:39.563Z,16.81
2018-05-17T13:55:01.645Z,16.63
2018-05-17T13:56:23.745Z,16.5
2018-05-17T13:57:45.307Z,16.41
2018-05-17T13:59:07.370Z,16.3
2018-05-17T14:00:29.211Z,16.3
2018-05-17T14:01:50.785Z,16.45
2018-05-17T14:03:12.622Z,16.57
2018-05-17T14:04:34.699Z,16.83
2018-05-17T14:05:56.011Z,16.66
2018-05-17T14:07:18.104Z,16.48
2018-05-17T14:08:40.220Z,16.66
2018-05-17T14:10:02.298Z,16.71
2018-05-17T14:11:23.874Z,16.68
2018-05-17T14:12:45.725Z,16.76
2018-05-17T14:14:07.851Z,16.64
2018-05-17T14:15:30.090Z,16.76
2018-05-17T14:16:51.984Z,16.66
2018-05-17T14:18:14.136Z,16.48
2018-05-17T14:19:35.974Z,16.48
2018-05-17T14:20:57.519Z,16.42
2018-05-17T14:22:19.621Z,16.61
2018-05-17T14:23:41.462Z,16.63
2018-05-17T14:25:03.278Z,16.67
2018-05-17T14:26:25.227Z,16.76
2018-05-17T14:27:47.053Z,16.66
2018-05-17T14:29:08.893Z,16.61
2018-05-17T14:30:30.752Z,16.71
2018-05-17T14:31:52.772Z,16.71
2018-05-17T14:33:14.596Z,16.52
2018-05-17T14:34:36.689Z,16.27
2018-05-17T14:35:58.784Z,16.27
2018-05-17T14:37:20.613Z,16.33
2018-05-17T14:38:42.813Z,16.31
2018-05-17T14:40:05.026Z,16.11
2018-05-17T14:41:26.873Z,16.11
2018-05-17T14:42:48.435Z,16.15
2018-05-17T14:44:10.392Z,16.2
2018-05-17T14:45:32.507Z,16.24
2018-05-17T14:46:54.606Z,16.09
2018-05-17T14:48:16.163Z,16.01
2018-05-17T14:49:38.004Z,16.04
2018-05-17T14:51:00.103Z,15.96
2018-05-17T14:52:22.195Z,15.97
2018-05-17T14:53:44.093Z,15.93
2018-05-17T14:55:05.935Z,15.93
2018-05-17T14:56:28.240Z,15.89
2018-05-17T14:57:50.349Z,15.97
2018-05-17T14:59:12.453Z,15.92
2018-05-17T15:00:34.290Z,15.75
2018-05-17T15:01:56.148Z,15.76
2018-05-17T15:03:18.226Z,15.74
2018-05-17T15:04:40.061Z,15.76
2018-05-17T15:06:01.904Z,15.71
2018-05-17T15:07:23.995Z,15.68
2018-05-17T15:08:46.499Z,15.82
2018-05-17T15:10:08.271Z,15.76
2018-05-17T15:11:30.566Z,15.74
2018-05-17T15:12:52.652Z,15.71
2018-05-17T15:14:14.459Z,15.69
2018-05-17T15:15:36.578Z,15.69
2018-05-17T15:16:58.690Z,15.65
2018-05-17T15:18:20.866Z,15.56
2018-05-17T15:19:42.956Z,15.5
2018-05-17T15:21:05.075Z,15.49
2018-05-17T15:22:26.921Z,15.49
2018-05-17T15:23:49.011Z,15.68
2018-05-17T15:25:10.598Z,15.75
2018-05-17T15:26:32.690Z,15.97
2018-05-17T15:27:54.825Z,16.05
2018-05-17T15:29:16.900Z,15.92
2018-05-17T15:30:38.984Z,15.92
2018-05-17T15:32:00.267Z,15.74
2018-05-17T15:33:21.858Z,15.8
2018-05-17T15:34:43.960Z,15.65
2018-05-17T15:36:05.766Z,15.76
2018-05-17T15:37:27.460Z,15.69
2018-05-17T15:38:49.312Z,15.75
2018-05-17T15:40:11.491Z,15.92
2018-05-17T15:41:33.341Z,15.94
2018-05-17T15:42:55.176Z,15.9
2018-05-17T15:44:17.279Z,15.84
2018-05-17T15:45:39.349Z,16.09
2018-05-17T15:47:01.183Z,16.15
2018-05-17T15:48:23.539Z,16.17
2018-05-17T15:49:45.319Z,16.09
2018-05-17T15:51:07.392Z,16.11
2018-05-17T15:52:29.489Z,16.09
2018-05-17T15:53:51.603Z,15.86
2018-05-17T15:55:13.694Z,15.96
2018-05-17T15:56:35.253Z,16.04
2018-05-17T15:57:57.336Z,16.12
2018-05-17T15:59:19.435Z,16.11
2018-05-17T16:00:41.053Z,16.05
2018-05-17T16:02:03.165Z,16.08
2018-05-17T16:03:25.264Z,16.21
2018-05-17T16:04:47.092Z,16.25
2018-05-17T16:06:09.218Z,16.24
2018-05-17T16:07:31.707Z,16.27
2018-05-17T16:08:54.218Z,16.14
2018-05-17T16:10:16.404Z,15.96
2018-05-17T16:11:38.445Z,16.04
2018-05-17T16:13:00.271Z,16.02
2018-05-17T16:14:22.398Z,15.87
2018-05-17T16:15:44.936Z,15.83
2018-05-17T16:17:06.729Z,15.93
2018-05-17T16:18:28.554Z,16
2018-05-17T16:19:50.637Z,15.89
2018-05-17T16:21:12.758Z,15.86
2018-05-17T16:22:34.851Z,15.83
2018-05-17T16:23:56.945Z,15.8
2018-05-17T16:25:19.065Z,15.78
2018-05-17T16:26:41.154Z,15.54
2018-05-17T16:28:03.277Z,15.68
2018-05-17T16:29:25.381Z,15.74
2018-05-17T16:30:47.475Z,15.8
2018-05-17T16:32:09.575Z,15.75
2018-05-17T16:33:31.695Z,15.76
2018-05-17T16:34:53.808Z,15.8
2018-05-17T16:36:15.698Z,15.78
2018-05-17T16:37:37.788Z,15.71
2018-05-17T16:38:59.904Z,15.75
2018-05-17T16:40:21.757Z,15.82
2018-05-17T16:41:43.886Z,15.75
2018-05-17T16:43:05.740Z,15.64
2018-05-17T16:44:27.563Z,15.59
2018-05-17T16:45:49.652Z,15.72
2018-05-17T16:47:11.215Z,15.54
2018-05-17T16:48:33.015Z,15.49
2018-05-17T16:49:55.194Z,15.5
2018-05-17T16:51:17.034Z,15.51
2018-05-17T16:52:39.069Z,15.56
2018-05-17T16:54:01.606Z,15.53
2018-05-17T16:55:23.702Z,15.51
2018-05-17T16:56:45.544Z,15.5
2018-05-17T16:58:07.651Z,15.53
2018-05-17T16:59:29.477Z,15.68
2018-05-17T17:00:51.429Z,15.71
2018-05-17T17:02:13.238Z,15.6
2018-05-17T17:03:35.325Z,15.56
2018-05-17T17:04:57.645Z,15.59
2018-05-17T17:06:19.799Z,15.46
2018-05-17T17:07:41.639Z,15.38
2018-05-17T17:09:03.760Z,15.49
2018-05-17T17:10:25.856Z,15.28
2018-05-17T17:11:47.955Z,15.25
2018-05-17T17:13:10.120Z,15.35
2018-05-17T17:14:32.233Z,15.2
2018-05-17T17:15:54.399Z,15.17
2018-05-17T17:17:15.978Z,15.19
2018-05-17T17:18:38.118Z,15.14
2018-05-17T17:20:00.210Z,15.25
2018-05-17T17:21:22.296Z,15.27
2018-05-17T17:22:44.407Z,15.36
2018-05-17T17:24:06.661Z,15.27
2018-05-17T17:25:28.507Z,15.43
2018-05-17T17:26:50.103Z,15.35
2018-05-17T17:28:12.227Z,15.32
2018-05-17T17:29:34.359Z,15.27
2018-05-17T17:30:56.404Z,15.19
2018-05-17T17:32:18.420Z,15.19
2018-05-17T17:33:40.281Z,14.95
2018-05-17T17:35:02.420Z,14.92
2018-05-17T17:36:24.383Z,14.96
2018-05-17T17:37:46.033Z,14.95
2018-05-17T17:39:07.616Z,14.99